Washington, LA (70589)

4:31 PM CDT on April 25, 2017 (GMT -0500)
Evangeline Sub. | | Change Station

Elev 82 ft 30.58 °N, 92.08 °W | Updated 31 seconds ago

Overcast
Overcast
79.3 °F
Feels Like 81 °F
N
8.0
Wind Variable Wind from North

Today
High -- | Low -- °F
--% Chance of Precip.
Yesterday
High -- | Low -- °F
Precip. -- in
Pressure 29.71 in
Visibility 10.0 miles
Clouds Overcast 4100 ft
Heat Index 81 °F
Dew Point 63 °F
Humidity 58%
Rainfall Not available.
Snow Depth Not available.
6:29 AM 7:42 PM
Waning Crescent, 1% visible
METAR KOPL 252115Z AUTO 19008KT 10SM OVC041 25/17 A2971 RMK AO2 T02540167 PWINO
Pressure 29.71 in
Visibility 10.0 miles
Clouds Overcast 4100 ft
Heat Index 81 °F
Dew Point 63 °F
Humidity 58%
Rainfall Not available.
Snow Depth Not available.
6:29 AM 7:42 PM
Waning Crescent, 1% visible
METAR KOPL 252115Z AUTO 19008KT 10SM OVC041 25/17 A2971 RMK AO2 T02540167 PWINO

Get Severe Weather Alerts

Thanks for signing up!

Be on the lookout for a verification email in your inbox.

You'll start receiving the daily forecast at 8 AM.

×

10-Day Weather Forecast

Almanac

Astronomy

Apr. 25, 2017 Rise Set
Actual Time
Civil Twilight
Nautical Twilight
Astronomical Twilight
Moon
Length of Visible Light
Length of Day
Tomorrow will be .
, % of the Moon is Illuminated

Today's Extremes

State Highs State Lows

Community

WunderPhotos

WunderBlog® & News

Nearby

Air Quality

  Air Quality AQ Index Pollutant
Not available.

Snow Depth

Station Depth Elevation

Earthquake Activity

City Distance Mag. Time & Date
Minimum magnitude displayed is 2.5.

Coastal Water Temperatures

Place Temperature

Stations

Nearby Weather Stations

Station Location Temp. Windchill Dew Point Humidity Wind Precip. Elev Updated Type
                   

Watches & Warnings

There are currently no watches in effect.